Latest Weather Observations for Maryborough

IDQ60801

Issued at 11:02 pm EST Saturday 6 February 2016 (issued every 30 minutes, with the page automatically refreshed every 10 minutes)

About weather observations | Map of weather stations | Latest weather observations for QLD | Other Formats
Station Details ID: 040126 Name: MARYBOROUGH Lat: -25.51 Lon: 152.72 Height: 10.28 m
Data from the previous 72 hours. | See also: Recent months at Maryborough
Date/Time
EST
Temp
°C
App
Temp
°C
Dew
Point
Rel
Hum
%
Delta-T
°C
Wind Press
QNH
hPa
Press
MSL
hPa
Rain
since 9 am
mm
Dir
 
Spd
km/h
Gust
km/h
Spd
kts
Gust
kts
06/11:00pm 23.1 25.6 21.7 92 0.9 S 11 15 6 8 1011.2 - 2.2
06/10:30pm 23.2 26.0 21.5 90 1.1 S 9 11 5 6 1011.4 - 2.2
06/10:00pm 23.3 25.7 21.6 90 1.1 SE 11 19 6 10 1011.3 - 2.2
06/09:30pm 23.1 25.8 21.4 90 1.1 SE 9 13 5 7 1011.3 - 2.2
06/09:00pm 23.1 25.4 21.4 90 1.1 SSE 11 15 6 8 1011.4 1011.3 2.2
06/08:30pm 22.9 25.6 21.4 91 1.0 SSE 9 13 5 7 1010.9 - 2.2
06/08:00pm 22.6 24.9 20.7 89 1.2 S 9 13 5 7 1010.7 - 2.2
06/07:30pm 22.6 25.1 21.1 91 1.0 SE 9 13 5 7 1010.5 - 2.2
06/07:00pm 22.6 23.1 20.9 90 1.1 SE 19 28 10 15 1010.0 - 2.2
06/06:46pm 22.8 22.1 21.1 90 1.1 SE 26 41 14 22 1009.8 - 2.2
06/06:30pm 23.2 24.2 21.8 92 0.9 SE 19 28 10 15 1009.5 - 2.0
06/06:25pm 23.2 25.0 21.8 92 0.9 SE 15 20 8 11 1009.5 - 1.6
06/06:00pm 23.2 24.3 21.3 89 1.2 SE 17 24 9 13 1009.2 1009.1 0.4
06/05:51pm 23.4 23.6 21.3 88 1.4 SE 22 28 12 15 1009.1 - 0.4
06/05:41pm 23.6 23.9 21.5 88 1.4 SE 22 30 12 16 1009.0 - 0.4
06/05:30pm 24.2 24.1 21.5 85 1.8 ESE 24 33 13 18 1008.8 - 0.2
06/05:00pm 25.2 25.0 21.3 79 2.6 SE 24 33 13 18 1008.2 - 0.2
06/04:30pm 25.7 25.2 21.4 77 2.8 SE 26 39 14 21 1007.9 - 0.2
06/04:00pm 25.9 24.7 20.9 74 3.3 SE 28 43 15 23 1007.8 - 0.2
06/03:30pm 25.8 25.3 20.8 74 3.3 SE 24 37 13 20 1007.8 - 0.2
06/03:00pm 25.6 24.8 20.8 75 3.2 ESE 26 39 14 21 1007.9 1007.8 0.2
06/02:30pm 26.0 25.1 21.4 76 3.1 ESE 28 39 15 21 1008.0 - 0.2
06/02:02pm 26.3 24.6 21.3 74 3.3 SE 32 50 17 27 1008.1 - 0.2
06/02:00pm 26.5 25.5 21.9 76 3.1 SE 30 43 16 23 1008.1 - 0.2
06/01:30pm 26.2 25.5 21.0 73 3.4 ESE 26 35 14 19 1008.3 - 0.2
06/01:00pm 26.1 25.0 21.1 74 3.3 SE 28 41 15 22 1008.4 - 0.2
06/12:30pm 25.5 26.2 22.2 82 2.2 ESE 22 35 12 19 1008.8 - 0.2
06/12:00pm 25.3 25.6 22.2 83 2.1 SE 24 32 13 17 1009.0 1008.9 0.2
06/11:40am 25.7 24.6 21.1 76 3.0 SE 28 46 15 25 1009.1 - 0.2
06/11:30am 26.2 26.4 21.4 75 3.2 SE 22 33 12 18 1009.0 - 0.2
06/11:00am 25.3 25.5 22.8 86 1.7 SE 26 39 14 21 1009.3 - 0.2
06/10:30am 25.4 26.8 22.9 86 1.7 SE 20 30 11 16 1009.5 - 0.0
06/10:09am 24.9 23.9 21.2 80 2.4 SE 28 46 15 25 1009.6 - 0.0
06/10:00am 25.9 26.6 22.2 80 2.5 SE 22 30 12 16 1009.5 - 0.0
06/09:30am 25.3 26.2 22.0 82 2.2 SE 20 32 11 17 1009.6 - 0.0
06/09:00am 24.8 27.1 22.7 88 1.4 SSE 15 19 8 10 1009.5 1009.4 5.0
06/08:30am 24.4 26.8 23.0 92 0.9 SSE 15 19 8 10 1009.5 - 5.0
06/08:00am 23.9 26.2 22.7 93 0.8 SSE 15 22 8 12 1009.5 - 4.8
06/07:30am 23.7 26.3 22.7 94 0.7 S 13 15 7 8 1009.2 - 4.8
06/07:00am 23.4 26.0 22.6 95 0.5 S 13 15 7 8 1008.9 - 4.8
06/06:30am 23.3 26.2 22.5 95 0.5 S 11 17 6 9 1008.6 - 4.8
06/06:00am 23.2 25.9 22.2 94 0.7 S 11 17 6 9 1008.1 1008.0 4.8
06/05:30am 23.0 25.3 22.0 94 0.7 S 13 17 7 9 1007.4 - 4.8
06/05:00am 23.0 25.7 22.2 95 0.5 S 11 17 6 9 1007.1 - 4.8
06/04:30am 23.1 25.0 22.1 94 0.7 S 15 20 8 11 1006.9 - 4.8
06/04:00am 23.1 24.9 21.9 93 0.8 S 15 19 8 10 1006.9 - 4.8
06/03:30am 23.0 25.2 21.8 93 0.8 SSE 13 17 7 9 1007.0 - 4.8
06/03:00am 22.9 25.5 21.9 94 0.7 S 11 15 6 8 1006.8 1006.7 4.8
06/02:30am 22.7 25.1 21.5 93 0.8 S 11 15 6 8 1006.7 - 4.8
06/02:00am 22.8 24.8 21.6 93 0.8 SSE 13 20 7 11 1007.1 - 4.4
06/01:50am 22.9 24.1 21.5 92 0.9 SSE 17 20 9 11 1007.1 - 4.4
06/01:30am 23.3 24.6 21.6 90 1.1 SE 17 20 9 11 1007.1 - 3.8
06/01:00am 23.3 25.0 21.7 91 1.1 SSE 15 19 8 10 1007.5 - 3.8
06/12:30am 23.3 24.3 21.7 91 1.1 SSE 19 24 10 13 1007.8 - 3.8
06/12:00am 23.3 25.6 22.1 93 0.8 SSE 13 19 7 10 1008.1 1008.0 3.8
 
Date/Time
EST
Temp
°C
App
Temp
°C
Dew
Point
Rel
Hum
%
Delta-T
°C
Wind Press
QNH
hPa
Press
MSL
hPa
Rain
since 9 am
mm
Dir
 
Spd
km/h
Gust
km/h
Spd
kts
Gust
kts
05/11:30pm 23.3 25.5 21.9 92 0.9 SSE 13 19 7 10 1008.5 - 3.8
05/11:00pm 23.5 25.9 22.3 93 0.8 SSE 13 17 7 9 1008.7 - 3.8
05/10:54pm 23.5 25.9 22.3 93 0.8 SE 13 20 7 11 1008.8 - 3.8
05/10:36pm 23.6 26.3 22.2 92 0.9 S 11 17 6 9 1009.0 - 3.8
05/10:30pm 23.7 26.9 22.3 92 0.9 S 9 11 5 6 1009.0 - 2.4
05/10:00pm 23.6 26.2 22.0 91 1.1 SSE 11 15 6 8 1009.2 - 2.4
05/09:30pm 23.4 25.9 21.8 91 1.1 S 11 15 6 8 1009.1 - 2.4
05/09:00pm 23.1 25.0 21.4 90 1.1 SSE 13 19 7 10 1008.7 1008.6 2.4
05/08:30pm 23.2 23.6 20.9 87 1.5 SE 20 30 11 16 1008.7 - 2.4
05/08:00pm 23.5 24.2 21.6 89 1.3 SSE 20 28 11 15 1008.7 - 2.4
05/07:30pm 24.4 24.9 21.1 82 2.2 SSE 20 26 11 14 1008.0 - 2.0
05/07:00pm 24.4 24.6 21.3 83 2.0 SSE 22 33 12 18 1007.6 - 2.0
05/06:30pm 23.7 26.0 22.0 90 1.1 SE 13 19 7 10 1007.4 - 2.0
05/06:00pm 23.2 23.5 21.5 90 1.1 ESE 22 35 12 19 1007.3 1007.2 2.0
05/05:30pm 24.7 24.2 20.8 79 2.6 SE 24 33 13 18 1006.8 - 1.0
05/05:00pm 24.7 25.6 21.6 83 2.1 SE 19 24 10 13 1006.5 - 1.0
05/04:30pm 24.7 23.7 20.4 77 2.8 ESE 26 37 14 20 1006.5 - 1.0
05/04:00pm 25.6 26.5 21.9 80 2.5 SE 20 30 11 16 1006.4 - 1.0
05/03:30pm 25.0 24.7 21.1 79 2.6 SE 24 39 13 21 1006.2 - 1.0
05/03:00pm 24.2 22.1 20.9 82 2.2 SE 33 46 18 25 1006.6 1006.5 1.0
05/02:51pm 23.7 21.6 21.0 85 1.8 SE 33 48 18 26 1006.7 - 1.0
05/02:30pm 23.6 23.0 21.9 90 1.1 SE 28 37 15 20 1007.1 - 1.0
05/02:26pm 23.8 23.4 21.7 88 1.4 SE 26 35 14 19 1007.0 - 0.8
05/02:00pm 25.1 23.2 21.0 78 2.7 SSE 32 43 17 23 1006.9 - 0.8
05/01:30pm 25.8 24.6 21.5 77 2.9 SSE 30 41 16 22 1006.9 - 0.8
05/01:00pm 27.0 26.5 22.2 75 3.2 SSE 28 46 15 25 1006.8 - 0.8
05/12:56pm 26.6 26.0 22.0 76 3.1 SSE 28 46 15 25 1006.8 - 0.8
05/12:30pm 25.6 25.2 21.7 79 2.6 SSE 26 41 14 22 1007.2 - 0.8
05/12:00pm 25.0 25.1 21.9 83 2.1 SSE 24 33 13 18 1007.4 1007.3 0.8
05/11:30am 25.9 25.9 22.4 81 2.4 SE 26 35 14 19 1007.5 - 0.6
05/11:00am 25.6 26.8 22.5 83 2.1 SE 20 30 11 16 1007.6 - 0.6
05/10:30am 24.5 26.2 22.4 88 1.4 SSE 17 20 9 11 1007.8 - 0.6
05/10:17am 24.1 24.4 21.6 86 1.7 SSE 22 30 12 16 1007.8 - 0.6
05/10:00am 23.8 25.5 22.4 92 0.9 ESE 17 30 9 16 1008.1 - 0.6
05/09:41am 23.9 26.4 22.5 92 0.9 SE 13 17 7 9 1007.9 - 0.4
05/09:39am 23.9 26.5 22.7 93 0.8 SE 13 19 7 10 1007.8 - 0.4
05/09:30am 23.8 26.7 22.4 92 0.9 SSE 11 19 6 10 1007.7 - 0.0
05/09:17am 23.8 25.9 22.4 92 0.9 SSE 15 20 8 11 1007.7 - 0.0
05/09:00am 23.8 25.5 22.4 92 0.9 SSE 17 24 9 13 1007.7 1007.6 12.6
05/08:59am 23.6 25.1 22.0 91 1.1 SSE 17 24 9 13 1007.7 - 12.6
05/08:58am 23.6 25.1 22.0 91 1.1 SSE 17 28 9 15 1007.7 - 12.6
05/08:39am 23.5 25.7 21.9 91 1.1 SSE 13 19 7 10 1007.7 - 12.4
05/08:30am 23.9 25.9 22.3 91 1.1 SSE 15 20 8 11 1007.6 - 12.4
05/08:23am 23.8 24.8 21.7 88 1.4 SSE 19 32 10 17 1007.5 - 12.2
05/08:00am 24.0 24.9 21.5 86 1.7 SSE 19 24 10 13 1007.2 - 12.2
05/07:30am 24.0 24.9 21.5 86 1.7 SSE 19 26 10 14 1006.8 - 12.2
05/07:00am 23.7 24.9 21.4 87 1.5 SSE 17 22 9 12 1006.6 - 12.2
05/06:30am 23.2 24.2 21.1 88 1.4 SSE 17 24 9 13 1006.2 - 12.2
05/06:00am 23.0 24.1 21.3 90 1.1 S 17 22 9 12 1005.9 1005.8 12.2
05/05:30am 22.8 24.3 21.3 91 1.0 SSE 15 20 8 11 1005.4 - 12.2
05/05:00am 22.7 24.2 21.2 91 1.0 S 15 22 8 12 1005.1 - 12.2
05/04:30am 22.5 23.9 21.1 92 0.9 S 15 19 8 10 1004.9 - 12.2
05/04:00am 22.4 23.8 21.0 92 0.9 SSE 15 19 8 10 1004.7 - 12.2
05/03:30am 22.2 23.1 20.8 92 0.9 S 17 22 9 12 1004.7 - 12.2
05/03:00am 22.5 23.9 21.1 92 0.9 S 15 19 8 10 1004.7 1004.6 12.2
05/02:30am 22.8 25.2 21.6 93 0.8 SSW 11 15 6 8 1004.9 - 12.2
05/02:00am 23.0 25.5 21.8 93 0.8 S 11 15 6 8 1004.9 - 12.2
05/01:30am 23.0 25.4 22.2 95 0.5 S 13 17 7 9 1005.3 - 12.2
05/01:00am 23.0 25.5 22.5 97 0.3 S 13 17 7 9 1005.2 - 12.2
05/12:30am 22.7 25.0 22.0 96 0.5 S 13 17 7 9 1005.6 - 12.2
05/12:00am 22.5 25.7 21.7 95 0.5 S 7 9 4 5 1006.2 1006.1 12.2
 
Date/Time
EST
Temp
°C
App
Temp
°C
Dew
Point
Rel
Hum
%
Delta-T
°C
Wind Press
QNH
hPa
Press
MSL
hPa
Rain
since 9 am
mm
Dir
 
Spd
km/h
Gust
km/h
Spd
kts
Gust
kts
04/11:30pm 22.2 24.4 21.2 94 0.7 SE 11 17 6 9 1006.7 - 12.2
04/11:00pm 22.1 24.2 20.9 93 0.8 ESE 11 17 6 9 1007.3 - 12.2
04/10:30pm 22.4 25.5 21.4 94 0.7 SE 7 9 4 5 1008.0 - 11.6
04/10:00pm 22.1 23.8 20.9 93 0.8 ESE 13 20 7 11 1007.6 - 10.4
04/09:30pm 22.0 22.7 20.5 91 1.0 SE 17 22 9 12 1007.8 - 9.2
04/09:00pm 22.8 23.3 20.9 89 1.2 SSE 19 24 10 13 1007.9 1007.8 7.4
04/08:30pm 23.3 24.3 21.7 91 1.1 SSE 19 28 10 15 1007.3 - 5.6
04/08:00pm 23.7 24.8 22.0 90 1.1 SE 19 22 10 12 1007.2 - 4.0
04/07:30pm 24.4 25.2 21.7 85 1.8 SE 20 32 11 17 1006.4 - 3.2
04/07:00pm 24.4 24.3 21.5 84 1.9 SE 24 33 13 18 1005.9 - 2.8
04/06:30pm 24.0 23.4 21.9 88 1.4 SSE 28 44 15 24 1005.1 - 2.8
04/06:18pm 24.4 25.0 22.1 87 1.5 SSE 22 33 12 18 1004.8 - 2.8
04/06:00pm 24.6 24.2 22.3 87 1.5 SSE 28 37 15 20 1004.7 1004.6 2.8
04/05:30pm 25.5 23.6 22.0 81 2.3 SE 35 44 19 24 1004.3 - 2.8
04/05:10pm 25.4 23.7 22.5 84 2.0 SE 35 54 19 29 1003.6 - 2.8
04/05:09pm 25.4 23.4 22.5 84 2.0 SE 37 54 20 29 1003.6 - 2.8
04/05:00pm 25.5 24.9 22.6 84 2.0 SE 30 50 16 27 1003.3 - 2.8
04/04:59pm 25.5 25.0 22.8 85 1.8 SE 30 50 16 27 1003.3 - 2.8
04/04:38pm 25.3 26.6 24.1 93 0.8 SE 24 37 13 20 1003.5 - 2.8
04/04:30pm 25.1 26.7 23.9 93 0.8 SSE 22 35 12 19 1003.4 - 2.8
04/04:20pm 25.2 26.1 24.0 93 0.8 SE 26 35 14 19 1003.1 - 2.8
04/04:14pm 25.8 26.6 24.4 92 1.0 SE 28 37 15 20 1002.9 - 2.6
04/04:00pm 26.2 27.0 24.4 90 1.2 SE 28 41 15 22 1002.7 - 2.4
04/03:36pm 26.3 26.4 24.9 92 1.0 SE 33 43 18 23 1002.5 - 2.4
04/03:34pm 26.3 26.4 24.9 92 1.0 SE 33 43 18 23 1002.5 - 2.4
04/03:30pm 26.3 27.0 24.9 92 1.0 SE 30 43 16 23 1002.5 - 2.4
04/03:14pm 26.4 27.9 25.0 92 1.0 SE 26 39 14 21 1002.7 - 1.6
04/03:00pm 26.7 28.0 24.7 89 1.4 SE 26 33 14 18 1002.7 1002.6 0.8
04/02:46pm 27.1 29.1 25.1 89 1.4 SE 24 41 13 22 1002.4 - 0.8
04/02:30pm 27.5 28.6 24.9 86 1.8 SE 28 44 15 24 1002.2 - 0.6
04/02:00pm 28.7 30.4 25.3 82 2.4 SE 26 35 14 19 1002.6 - 0.0
04/01:30pm 31.7 34.4 25.1 68 4.7 SE 20 30 11 16 1002.8 - 0.0
04/01:00pm 31.6 33.5 23.4 61 5.7 SSE 19 22 10 12 1002.8 - 0.0
04/12:30pm 32.0 35.6 24.3 63 5.4 SE 13 19 7 10 1003.2 - 0.0
04/12:00pm 32.5 36.1 24.3 62 5.8 SSE 13 20 7 11 1003.4 1003.3 0.0
04/11:30am 32.3 35.4 24.1 62 5.7 SSE 15 20 8 11 1003.8 - 0.0
04/11:00am 32.0 35.3 23.8 62 5.7 S 13 19 7 10 1004.1 - 0.0
04/10:30am 31.7 34.5 24.3 65 5.2 S 17 22 9 12 1004.0 - 0.0
04/10:00am 31.4 34.2 24.3 66 5.0 S 17 28 9 15 1003.7 - 0.0
04/09:30am 30.8 32.9 23.7 66 4.9 SSW 19 26 10 14 1003.7 - 0.0
04/09:00am 29.8 31.9 22.5 65 5.0 S 15 20 8 11 1003.6 1003.5 11.0
04/08:30am 29.1 30.2 22.3 66 4.6 SW 20 28 11 15 1003.6 - 10.8
04/08:00am 28.5 31.0 23.2 73 3.6 SW 15 19 8 10 1003.6 - 10.8
04/07:30am 27.7 29.8 23.1 76 3.1 SW 17 22 9 12 1003.6 - 10.8
04/07:00am 26.7 28.7 23.0 80 2.5 SW 17 22 9 12 1003.6 - 10.8
04/06:30am 25.4 28.0 22.7 85 1.8 WSW 13 19 7 10 1003.3 - 10.8
04/06:00am 24.4 28.0 23.0 92 0.9 W 9 13 5 7 1003.0 1002.9 10.8
04/05:30am 24.2 27.8 23.0 93 0.8 SW 9 13 5 7 1002.5 - 10.8
04/05:00am 24.3 28.3 23.1 93 0.8 WSW 7 9 4 5 1002.2 - 10.8
04/04:30am 24.7 30.3 23.5 93 0.8 CALM 0 0 0 0 1001.8 - 10.8
04/04:23am 24.8 30.3 23.4 92 1.0 CALM 0 0 0 0 1001.9 - 10.8
04/04:00am 25.0 29.0 23.8 93 0.8 SSW 9 13 5 7 1001.9 - 10.8
04/03:38am 24.7 27.4 22.8 89 1.3 SW 13 17 7 9 1001.9 - 10.8
04/03:30am 24.5 27.2 22.2 87 1.5 SW 11 17 6 9 1001.9 - 10.8
04/03:00am 24.9 27.8 22.4 86 1.7 SW 11 13 6 7 1001.8 1001.7 10.8
04/02:30am 25.1 28.8 22.6 86 1.7 NW 7 11 4 6 1001.4 - 10.8
04/02:00am 25.3 29.3 22.8 86 1.7 W 6 7 3 4 1001.7 - 10.8
04/01:42am 25.6 29.4 22.7 84 2.0 W 7 11 4 6 1001.7 - 10.8
04/01:30am 25.7 28.2 23.2 86 1.7 NW 15 20 8 11 1001.9 - 10.8
04/01:04am 26.2 31.5 25.2 94 0.7 N 7 9 4 5 1002.4 - 10.8
04/01:00am 26.2 31.5 25.2 94 0.7 N 7 9 4 5 1002.4 - 10.8
04/12:30am 26.3 30.9 25.3 94 0.7 N 11 13 6 7 1002.8 - 10.8
04/12:00am 26.5 31.1 25.3 93 0.8 NNW 11 15 6 8 1003.4 1003.3 10.8
 
Date/Time
EST
Temp
°C
App
Temp
°C
Dew
Point
Rel
Hum
%
Delta-T
°C
Wind Press
QNH
hPa
Press
MSL
hPa
Rain
since 9 am
mm
Dir
 
Spd
km/h
Gust
km/h
Spd
kts
Gust
kts
03/11:30pm 26.5 31.1 25.3 93 0.8 N 11 15 6 8 1003.8 - 10.8

Other Formats:

Comma delimited format used in spreadsheet applications
http://www.bom.gov.au/fwo/IDQ60801/IDQ60801.94567.axf

JavaScript Object Notation format (JSON) in row-major order
http://www.bom.gov.au/fwo/IDQ60801/IDQ60801.94567.json